sensor_id;sensor_type;location;lat;lon;timestamp;temperature;humidity
31769;DHT22;18342;52.132;21.048;2022-11-06T20:16:04;7.50;99.90
31769;DHT22;18342;52.132;21.048;2022-11-06T20:18:30;7.20;99.90
31769;DHT22;18342;52.132;21.048;2022-11-06T20:21:00;7.00;99.90
31769;DHT22;18342;52.132;21.048;2022-11-06T20:23:27;7.00;99.90
31769;DHT22;18342;52.132;21.048;2022-11-06T20:25:53;6.90;99.90
31769;DHT22;18342;52.132;21.048;2022-11-06T20:28:19;6.90;99.90
31769;DHT22;18342;52.132;21.048;2022-11-06T20:30:45;7.00;99.90
31769;DHT22;18342;52.132;21.048;2022-11-06T20:33:11;6.90;99.90
31769;DHT22;18342;52.132;21.048;2022-11-06T20:35:37;6.90;99.90
31769;DHT22;18342;52.132;21.048;2022-11-06T20:38:03;6.90;99.90
31769;DHT22;18342;52.132;21.048;2022-11-06T20:40:30;6.90;99.90
31769;DHT22;18342;52.132;21.048;2022-11-06T20:42:56;6.90;99.90
31769;DHT22;18342;52.132;21.048;2022-11-06T20:45:21;6.90;99.90
31769;DHT22;18342;52.132;21.048;2022-11-06T20:47:47;6.90;99.90
31769;DHT22;18342;52.132;21.048;2022-11-06T20:50:13;6.90;99.90
31769;DHT22;18342;52.132;21.048;2022-11-06T20:52:38;6.90;99.90
31769;DHT22;18342;52.132;21.048;2022-11-06T20:55:04;6.90;99.90
31769;DHT22;18342;52.132;21.048;2022-11-06T20:57:30;6.90;99.90
31769;DHT22;18342;52.132;21.048;2022-11-06T20:59:55;6.90;99.90
31769;DHT22;18342;52.132;21.048;2022-11-06T21:02:21;6.90;99.90
31769;DHT22;18342;52.132;21.048;2022-11-06T21:04:47;6.90;99.90
31769;DHT22;18342;52.132;21.048;2022-11-06T21:07:12;6.80;99.90
31769;DHT22;18342;52.132;21.048;2022-11-06T21:09:38;6.80;99.90
31769;DHT22;18342;52.132;21.048;2022-11-06T21:12:04;6.80;99.90
31769;DHT22;18342;52.132;21.048;2022-11-06T21:14:30;6.80;99.90
31769;DHT22;18342;52.132;21.048;2022-11-06T21:16:56;6.80;99.90
31769;DHT22;18342;52.132;21.048;2022-11-06T21:19:22;6.80;99.90
31769;DHT22;18342;52.132;21.048;2022-11-06T21:21:48;6.80;99.90
31769;DHT22;18342;52.132;21.048;2022-11-06T21:24:14;6.80;99.90
31769;DHT22;18342;52.132;21.048;2022-11-06T21:26:40;6.80;99.90
31769;DHT22;18342;52.132;21.048;2022-11-06T21:29:09;6.70;99.90
31769;DHT22;18342;52.132;21.048;2022-11-06T21:31:35;6.60;99.90
31769;DHT22;18342;52.132;21.048;2022-11-06T21:34:03;6.50;99.90
31769;DHT22;18342;52.132;21.048;2022-11-06T21:36:32;6.30;99.90
31769;DHT22;18342;52.132;21.048;2022-11-06T21:39:01;6.20;99.90
31769;DHT22;18342;52.132;21.048;2022-11-06T21:41:29;6.20;99.90
31769;DHT22;18342;52.132;21.048;2022-11-06T21:43:55;6.10;99.90
31769;DHT22;18342;52.132;21.048;2022-11-06T21:46:21;6.10;99.90
31769;DHT22;18342;52.132;21.048;2022-11-06T21:48:47;6.10;99.90
31769;DHT22;18342;52.132;21.048;2022-11-06T21:51:19;6.00;99.90
31769;DHT22;18342;52.132;21.048;2022-11-06T21:53:45;6.00;99.90
31769;DHT22;18342;52.132;21.048;2022-11-06T21:56:30;6.00;99.90
31769;DHT22;18342;52.132;21.048;2022-11-06T21:58:58;5.90;99.90
31769;DHT22;18342;52.132;21.048;2022-11-06T22:01:25;6.00;99.90
31769;DHT22;18342;52.132;21.048;2022-11-06T22:03:51;5.90;99.90
31769;DHT22;18342;52.132;21.048;2022-11-06T22:06:20;5.90;99.90
31769;DHT22;18342;52.132;21.048;2022-11-06T22:08:47;5.90;99.90
31769;DHT22;18342;52.132;21.048;2022-11-06T22:13:40;6.00;99.90
31769;DHT22;18342;52.132;21.048;2022-11-06T22:16:07;6.00;99.90
31769;DHT22;18342;52.132;21.048;2022-11-06T22:18:33;6.10;99.90
31769;DHT22;18342;52.132;21.048;2022-11-06T22:21:10;6.00;99.90
31769;DHT22;18342;52.132;21.048;2022-11-06T22:23:37;6.10;99.90
31769;DHT22;18342;52.132;21.048;2022-11-06T22:26:08;6.10;99.90
31769;DHT22;18342;52.132;21.048;2022-11-06T22:28:34;6.10;99.90
31769;DHT22;18342;52.132;21.048;2022-11-06T22:31:00;6.10;99.90
31769;DHT22;18342;52.132;21.048;2022-11-06T22:33:27;6.20;99.90
31769;DHT22;18342;52.132;21.048;2022-11-06T22:35:58;6.20;99.90
31769;DHT22;18342;52.132;21.048;2022-11-06T22:38:25;6.20;99.90
31769;DHT22;18342;52.132;21.048;2022-11-06T22:40:52;6.20;99.90
31769;DHT22;18342;52.132;21.048;2022-11-06T22:43:18;6.30;99.90
31769;DHT22;18342;52.132;21.048;2022-11-06T22:45:44;6.40;99.90
31769;DHT22;18342;52.132;21.048;2022-11-06T22:48:09;6.40;99.90
31769;DHT22;18342;52.132;21.048;2022-11-06T22:50:35;6.40;99.90
31769;DHT22;18342;52.132;21.048;2022-11-06T22:53:01;6.50;99.90
31769;DHT22;18342;52.132;21.048;2022-11-06T22:55:26;6.50;99.90
31769;DHT22;18342;52.132;21.048;2022-11-06T22:57:52;6.50;99.90
31769;DHT22;18342;52.132;21.048;2022-11-06T23:00:20;6.50;99.90
31769;DHT22;18342;52.132;21.048;2022-11-06T23:02:46;6.50;99.90
31769;DHT22;18342;52.132;21.048;2022-11-06T23:05:12;6.50;99.90
31769;DHT22;18342;52.132;21.048;2022-11-06T23:07:38;6.50;99.90
31769;DHT22;18342;52.132;21.048;2022-11-06T23:10:04;6.50;99.90
31769;DHT22;18342;52.132;21.048;2022-11-06T23:12:31;6.50;99.90
31769;DHT22;18342;52.132;21.048;2022-11-06T23:14:57;6.50;99.90
31769;DHT22;18342;52.132;21.048;2022-11-06T23:17:23;6.50;99.90
31769;DHT22;18342;52.132;21.048;2022-11-06T23:19:49;6.40;99.90
31769;DHT22;18342;52.132;21.048;2022-11-06T23:22:15;6.40;99.90
31769;DHT22;18342;52.132;21.048;2022-11-06T23:25:00;6.40;99.90
31769;DHT22;18342;52.132;21.048;2022-11-06T23:27:26;6.40;99.90
31769;DHT22;18342;52.132;21.048;2022-11-06T23:29:52;6.40;99.90
31769;DHT22;18342;52.132;21.048;2022-11-06T23:32:20;6.40;99.90
31769;DHT22;18342;52.132;21.048;2022-11-06T23:34:46;6.30;99.90
31769;DHT22;18342;52.132;21.048;2022-11-06T23:37:12;6.30;99.90
31769;DHT22;18342;52.132;21.048;2022-11-06T23:39:37;6.20;99.90
31769;DHT22;18342;52.132;21.048;2022-11-06T23:42:03;6.30;99.90
31769;DHT22;18342;52.132;21.048;2022-11-06T23:44:29;6.20;99.90
31769;DHT22;18342;52.132;21.048;2022-11-06T23:47:13;6.20;99.90
31769;DHT22;18342;52.132;21.048;2022-11-06T23:49:39;6.20;99.90
31769;DHT22;18342;52.132;21.048;2022-11-06T23:52:04;6.20;99.90
31769;DHT22;18342;52.132;21.048;2022-11-06T23:54:30;6.20;99.90
31769;DHT22;18342;52.132;21.048;2022-11-06T23:56:56;6.10;99.90
31769;DHT22;18342;52.132;21.048;2022-11-06T23:59:22;6.20;99.90
